createdAt,value
2023-01-17T00:02:27.138Z,11.88
2023-01-17T00:05:12.989Z,12.80
2023-01-17T00:07:58.600Z,11.02
2023-01-17T00:10:30.926Z,10.20
2023-01-17T00:13:03.543Z,10.35
2023-01-17T00:15:34.647Z,13.45
2023-01-17T00:18:01.698Z,12.02
2023-01-17T00:20:49.048Z,9.50
2023-01-17T00:23:43.102Z,10.15
2023-01-17T00:26:14.952Z,11.75
2023-01-17T00:28:43.105Z,9.73
2023-01-17T00:31:12.937Z,10.35
2023-01-17T00:33:42.874Z,8.52
2023-01-17T00:36:11.359Z,9.80
2023-01-17T00:38:39.563Z,9.85
2023-01-17T00:41:09.883Z,10.48
2023-01-17T00:43:55.973Z,10.48
2023-01-17T00:46:42.159Z,12.07
2023-01-17T00:49:27.786Z,11.88
2023-01-17T00:52:14.032Z,10.70
2023-01-17T00:54:59.899Z,15.25
2023-01-17T00:57:45.935Z,10.82
2023-01-17T01:00:32.138Z,10.98
2023-01-17T01:03:18.206Z,14.18
2023-01-17T01:06:03.867Z,12.95
2023-01-17T01:08:49.632Z,14.63
2023-01-17T01:11:38.786Z,12.07
2023-01-17T01:14:27.147Z,10.75
2023-01-17T01:17:13.197Z,13.50
2023-01-17T01:22:44.448Z,12.82
2023-01-17T01:25:30.799Z,14.25
2023-01-17T01:28:23.796Z,13.07
2023-01-17T01:31:09.748Z,16.05
2023-01-17T01:33:36.931Z,14.55
2023-01-17T01:36:07.493Z,13.10
2023-01-17T01:38:34.535Z,13.73
2023-01-17T01:41:01.969Z,12.65
2023-01-17T01:43:47.509Z,14.48
2023-01-17T01:46:28.961Z,12.10
2023-01-17T01:49:08.635Z,13.60
2023-01-17T01:51:42.672Z,12.27
2023-01-17T01:54:20.481Z,14.75
2023-01-17T01:56:52.925Z,13.52
2023-01-17T01:59:21.520Z,14.73
2023-01-17T02:01:51.574Z,16.20
2023-01-17T02:04:20.021Z,16.23
2023-01-17T02:06:53.666Z,16.50
2023-01-17T02:09:21.090Z,15.85
2023-01-17T02:11:49.763Z,17.65
2023-01-17T02:14:18.208Z,16.73
2023-01-17T02:16:48.905Z,16.88
2023-01-17T02:19:28.095Z,17.20
2023-01-17T02:22:07.579Z,16.17
2023-01-17T02:24:49.080Z,16.73
2023-01-17T02:27:26.986Z,16.75
2023-01-17T02:30:15.442Z,15.95
2023-01-17T02:33:04.080Z,17.02
2023-01-17T02:35:54.679Z,20.15
2023-01-17T02:38:31.678Z,16.77
2023-01-17T02:41:07.926Z,18.20
2023-01-17T02:43:37.507Z,17.73
2023-01-17T02:46:04.696Z,19.08
2023-01-17T02:48:36.472Z,19.67
2023-01-17T02:51:22.521Z,22.38
2023-01-17T02:56:44.663Z,21.13
2023-01-17T02:59:15.052Z,19.88
2023-01-17T03:01:57.284Z,22.77
2023-01-17T03:04:28.500Z,18.98
2023-01-17T03:07:01.416Z,22.85
2023-01-17T03:09:30.864Z,26.35
2023-01-17T03:11:59.352Z,24.25
2023-01-17T03:14:31.335Z,20.50
2023-01-17T03:17:01.014Z,20.75
2023-01-17T03:19:28.268Z,25.02
2023-01-17T03:21:57.873Z,20.52
2023-01-17T03:24:25.173Z,23.17
2023-01-17T03:26:56.948Z,24.40
2023-01-17T03:29:24.275Z,27.20
2023-01-17T03:31:51.284Z,24.42
2023-01-17T03:34:18.647Z,25.35
2023-01-17T03:36:45.632Z,27.23
2023-01-17T03:39:12.866Z,22.45
2023-01-17T03:41:39.915Z,23.85
2023-01-17T03:44:07.207Z,22.67
2023-01-17T03:46:34.229Z,23.65
2023-01-17T03:49:04.570Z,27.23
2023-01-17T03:51:31.617Z,23.20
2023-01-17T03:53:59.235Z,22.13
2023-01-17T03:56:28.741Z,25.55
2023-01-17T03:58:58.542Z,21.10
2023-01-17T04:01:27.971Z,24.55
2023-01-17T04:03:55.471Z,24.60
2023-01-17T04:06:24.711Z,22.33
2023-01-17T04:08:51.957Z,20.25
2023-01-17T04:11:18.989Z,23.35
2023-01-17T04:13:46.273Z,23.17
2023-01-17T04:16:17.730Z,23.83
2023-01-17T04:18:45.152Z,21.92
2023-01-17T04:21:12.205Z,23.02
2023-01-17T04:23:39.591Z,21.98
2023-01-17T04:26:06.962Z,22.70
2023-01-17T04:28:34.327Z,21.95
2023-01-17T04:31:01.368Z,20.17
2023-01-17T04:33:29.332Z,21.45
2023-01-17T04:35:56.779Z,20.73
2023-01-17T04:38:24.624Z,23.70
2023-01-17T04:40:54.429Z,22.08
2023-01-17T04:43:22.212Z,19.77
2023-01-17T04:45:55.113Z,22.20
2023-01-17T04:48:22.449Z,23.35
2023-01-17T04:50:49.645Z,19.90
2023-01-17T04:53:16.968Z,20.80
2023-01-17T04:55:47.171Z,21.10
2023-01-17T04:58:14.528Z,20.08
2023-01-17T05:00:41.489Z,20.08
2023-01-17T05:03:08.843Z,22.63
2023-01-17T05:05:35.849Z,19.88
2023-01-17T05:08:03.226Z,20.35
2023-01-17T05:10:30.267Z,21.10
2023-01-17T05:12:59.550Z,22.00
2023-01-17T05:15:27.524Z,21.50
2023-01-17T05:17:58.054Z,21.13
2023-01-17T05:20:26.888Z,21.77
2023-01-17T05:22:58.155Z,19.63
2023-01-17T05:25:27.731Z,19.45
2023-01-17T05:27:55.609Z,21.05
2023-01-17T05:30:24.850Z,20.05
2023-01-17T05:32:54.940Z,24.38
2023-01-17T05:35:25.125Z,22.25
2023-01-17T05:37:52.992Z,22.85
2023-01-17T05:40:25.274Z,22.05
2023-01-17T05:42:55.160Z,19.85
2023-01-17T05:45:23.925Z,23.05
2023-01-17T05:47:52.971Z,21.77
2023-01-17T05:50:26.033Z,21.17
2023-01-17T05:53:02.095Z,21.38
2023-01-17T05:57:57.436Z,19.75
2023-01-17T06:00:25.114Z,19.90
2023-01-17T06:02:57.265Z,20.73
2023-01-17T06:05:28.395Z,22.08
2023-01-17T06:07:56.635Z,22.58
2023-01-17T06:10:24.526Z,23.02
2023-01-17T06:13:05.012Z,25.48
2023-01-17T06:15:34.760Z,21.00
2023-01-17T06:18:13.379Z,24.27
2023-01-17T06:20:40.863Z,26.67
2023-01-17T06:23:11.806Z,25.17
2023-01-17T06:25:44.261Z,27.25
2023-01-17T06:28:13.721Z,27.88
2023-01-17T06:30:41.125Z,28.20
2023-01-17T06:33:08.485Z,25.67
2023-01-17T06:35:37.712Z,25.50
2023-01-17T06:38:05.222Z,28.70
2023-01-17T06:40:32.408Z,26.05
2023-01-17T06:43:01.797Z,25.90
2023-01-17T06:45:29.990Z,28.65
2023-01-17T06:47:59.310Z,27.92
2023-01-17T06:50:27.272Z,24.80
2023-01-17T06:53:03.014Z,23.77
2023-01-17T06:55:33.717Z,21.27
2023-01-17T06:58:03.151Z,25.88
2023-01-17T07:00:35.311Z,26.15
2023-01-17T07:03:02.888Z,23.75
2023-01-17T07:05:29.973Z,23.95
2023-01-17T07:07:58.055Z,21.92
2023-01-17T07:10:25.297Z,24.30
2023-01-17T07:13:00.757Z,22.88
2023-01-17T07:15:28.234Z,21.55
2023-01-17T07:17:55.491Z,24.10
2023-01-17T07:20:22.497Z,19.55
2023-01-17T07:22:49.835Z,23.77
2023-01-17T07:25:17.239Z,23.17
2023-01-17T07:27:45.718Z,23.80
2023-01-17T07:30:13.437Z,21.90
2023-01-17T07:32:40.808Z,21.48
2023-01-17T07:35:08.196Z,23.73
2023-01-17T07:37:35.556Z,20.98
2023-01-17T07:40:03.193Z,20.45
2023-01-17T07:42:30.511Z,20.88
2023-01-17T07:44:57.538Z,21.77
2023-01-17T07:47:24.937Z,24.45
2023-01-17T07:49:51.968Z,26.15
2023-01-17T07:52:19.253Z,22.50
2023-01-17T07:54:46.315Z,23.83
2023-01-17T07:57:15.699Z,25.67
2023-01-17T07:59:42.675Z,26.98
2023-01-17T08:02:23.607Z,22.70
2023-01-17T08:04:50.746Z,27.27
2023-01-17T08:07:18.014Z,26.00
2023-01-17T08:09:49.684Z,26.80
2023-01-17T08:12:17.195Z,22.63
2023-01-17T08:14:46.632Z,24.33
2023-01-17T08:17:18.185Z,29.95
2023-01-17T08:19:45.192Z,29.40
2023-01-17T08:22:12.780Z,30.20
2023-01-17T08:24:39.867Z,32.08
2023-01-17T08:27:08.999Z,29.13
2023-01-17T08:29:36.049Z,27.17
2023-01-17T08:32:04.123Z,31.90
2023-01-17T08:34:33.778Z,24.50
2023-01-17T08:37:01.116Z,30.88
2023-01-17T08:39:28.811Z,27.55
2023-01-17T08:41:57.451Z,26.02
2023-01-17T08:44:24.664Z,23.70
2023-01-17T08:46:54.576Z,22.13
2023-01-17T08:49:21.527Z,26.27
2023-01-17T08:51:48.821Z,24.95
2023-01-17T08:54:18.952Z,22.08
2023-01-17T08:56:49.154Z,25.02
2023-01-17T08:59:16.215Z,28.92
2023-01-17T09:01:46.038Z,21.65
2023-01-17T09:04:14.360Z,24.15
2023-01-17T09:06:45.309Z,18.40
2023-01-17T09:09:13.697Z,17.63
2023-01-17T09:11:41.075Z,19.10
2023-01-17T09:14:12.280Z,21.70
2023-01-17T09:16:39.678Z,17.05
2023-01-17T09:19:06.735Z,18.08
2023-01-17T09:21:34.090Z,19.73
2023-01-17T09:24:02.211Z,15.18
2023-01-17T09:26:30.472Z,24.10
2023-01-17T09:28:58.778Z,18.00
2023-01-17T09:31:28.855Z,20.02
2023-01-17T09:33:57.578Z,24.40
2023-01-17T09:36:28.914Z,20.08
2023-01-17T09:38:57.960Z,22.15
2023-01-17T09:41:27.955Z,23.00
2023-01-17T09:43:57.993Z,21.27
2023-01-17T09:46:41.328Z,27.10
2023-01-17T09:49:32.787Z,19.13
2023-01-17T09:52:00.695Z,25.08
2023-01-17T09:54:35.835Z,21.88
2023-01-17T09:57:26.529Z,21.17
2023-01-17T10:00:03.147Z,26.00
2023-01-17T10:02:45.864Z,18.27
2023-01-17T10:05:28.613Z,19.40
2023-01-17T10:07:58.746Z,19.85
2023-01-17T10:10:36.509Z,20.25
2023-01-17T10:13:33.182Z,18.20
2023-01-17T10:16:41.860Z,16.00
2023-01-17T10:19:09.175Z,20.33
2023-01-17T10:21:59.219Z,20.25
2023-01-17T10:24:54.516Z,16.90
2023-01-17T10:27:34.886Z,23.75
2023-01-17T10:30:11.195Z,13.25
2023-01-17T10:32:46.730Z,14.30
2023-01-17T10:35:27.041Z,13.73
2023-01-17T10:37:57.287Z,8.68
2023-01-17T10:40:30.873Z,12.98
2023-01-17T10:43:03.033Z,7.93
2023-01-17T10:45:36.203Z,11.77
2023-01-17T10:48:40.837Z,9.00
2023-01-17T10:51:22.027Z,9.07
2023-01-17T10:53:56.958Z,14.00
2023-01-17T10:56:28.257Z,14.07
2023-01-17T10:59:20.132Z,12.88
2023-01-17T11:01:49.697Z,11.10
2023-01-17T11:04:27.069Z,8.85
2023-01-17T11:07:29.584Z,8.68
2023-01-17T11:09:58.425Z,8.55
2023-01-17T11:12:45.928Z,5.95
2023-01-17T11:15:19.947Z,6.00
2023-01-17T11:18:00.621Z,5.53
2023-01-17T11:20:39.444Z,7.63
2023-01-17T11:23:17.514Z,8.88
2023-01-17T11:25:58.572Z,5.50
2023-01-17T11:28:32.899Z,6.82
2023-01-17T11:31:04.365Z,8.40
2023-01-17T11:33:55.686Z,7.78
2023-01-17T11:36:31.107Z,8.02
2023-01-17T11:39:07.316Z,5.22
2023-01-17T11:41:39.791Z,4.65
2023-01-17T11:44:27.947Z,4.78
2023-01-17T11:47:12.728Z,5.40
2023-01-17T11:49:42.309Z,12.57
2023-01-17T11:52:27.371Z,5.72
2023-01-17T11:54:55.997Z,7.55
2023-01-17T11:57:27.961Z,16.55
2023-01-17T12:00:15.479Z,10.98
2023-01-17T12:03:15.314Z,7.47
2023-01-17T12:06:13.610Z,5.95
2023-01-17T12:09:01.424Z,6.65
2023-01-17T12:12:11.358Z,8.60
2023-01-17T12:14:45.774Z,7.88
2023-01-17T12:17:39.081Z,6.15
2023-01-17T12:20:18.021Z,6.80
2023-01-17T12:22:51.399Z,6.63
2023-01-17T12:25:34.631Z,13.98
2023-01-17T12:28:34.268Z,17.33
2023-01-17T12:31:10.492Z,16.33
2023-01-17T12:34:15.707Z,18.60
2023-01-17T12:37:11.884Z,18.45
2023-01-17T12:39:43.401Z,16.33
2023-01-17T12:42:22.984Z,16.65
2023-01-17T12:44:57.897Z,16.75
2023-01-17T12:47:25.729Z,12.88
2023-01-17T12:50:17.030Z,12.90
2023-01-17T12:52:53.085Z,15.35
2023-01-17T12:55:44.354Z,12.60
2023-01-17T12:58:21.169Z,13.00
2023-01-17T13:00:56.647Z,10.18
2023-01-17T13:03:45.115Z,9.13
2023-01-17T13:06:25.059Z,15.13
2023-01-17T13:08:58.254Z,4.40
2023-01-17T13:11:38.330Z,2.75
2023-01-17T13:14:09.186Z,1.75
2023-01-17T13:16:57.935Z,2.63
2023-01-17T13:19:48.419Z,2.40
2023-01-17T13:22:18.346Z,2.83
2023-01-17T13:24:52.359Z,3.88
2023-01-17T13:27:27.903Z,2.90
2023-01-17T13:30:15.377Z,2.85
2023-01-17T13:33:21.637Z,3.15
2023-01-17T13:36:11.856Z,1.67
2023-01-17T13:38:57.746Z,2.75
2023-01-17T13:41:34.126Z,5.22
2023-01-17T13:44:21.327Z,8.20
2023-01-17T13:47:04.547Z,4.20
2023-01-17T13:49:34.652Z,2.83
2023-01-17T13:52:28.153Z,1.85
2023-01-17T13:55:01.423Z,4.00
2023-01-17T13:57:30.428Z,3.15
2023-01-17T14:00:00.122Z,2.35
2023-01-17T14:02:33.281Z,3.97
2023-01-17T14:05:17.564Z,5.47
2023-01-17T14:07:44.521Z,4.28
2023-01-17T14:10:32.446Z,5.30
2023-01-17T14:12:59.751Z,7.50
2023-01-17T14:15:28.806Z,8.60
2023-01-17T14:18:00.956Z,4.47
2023-01-17T14:20:34.324Z,3.88
2023-01-17T14:23:10.962Z,4.35
2023-01-17T14:25:40.459Z,3.60
2023-01-17T14:28:26.292Z,4.13
2023-01-17T14:30:56.107Z,2.42
2023-01-17T14:33:30.456Z,2.80
2023-01-17T14:36:01.478Z,4.50
2023-01-17T14:38:31.718Z,2.75
2023-01-17T14:41:01.256Z,3.72
2023-01-17T14:43:33.068Z,2.83
2023-01-17T14:46:04.309Z,3.42
2023-01-17T14:48:31.784Z,4.72
2023-01-17T14:51:00.358Z,4.57
2023-01-17T14:53:29.499Z,3.85
2023-01-17T14:56:18.428Z,5.88
2023-01-17T14:58:48.288Z,6.82
2023-01-17T15:01:20.584Z,6.57
2023-01-17T15:03:55.253Z,7.45
2023-01-17T15:06:33.201Z,8.73
2023-01-17T15:09:03.466Z,4.82
2023-01-17T15:11:36.181Z,4.20
2023-01-17T15:14:06.013Z,7.72
2023-01-17T15:16:36.335Z,8.02
2023-01-17T15:19:11.427Z,5.47
2023-01-17T15:21:42.690Z,6.35
2023-01-17T15:24:15.935Z,7.97
2023-01-17T15:26:44.059Z,7.57
2023-01-17T15:29:18.847Z,7.50
2023-01-17T15:31:50.496Z,4.80
2023-01-17T15:34:32.077Z,5.60
2023-01-17T15:37:08.484Z,5.65
2023-01-17T15:39:39.030Z,8.82
2023-01-17T15:42:22.920Z,4.85
2023-01-17T15:44:55.818Z,5.70
2023-01-17T15:47:32.818Z,7.88
2023-01-17T15:50:01.416Z,6.97
2023-01-17T15:52:29.804Z,5.40
2023-01-17T15:55:12.495Z,5.28
2023-01-17T15:57:40.270Z,6.85
2023-01-17T16:00:21.631Z,6.95
2023-01-17T16:02:57.904Z,6.35
2023-01-17T16:05:25.166Z,7.18
2023-01-17T16:07:56.475Z,8.88
2023-01-17T16:10:36.351Z,7.18
2023-01-17T16:13:05.828Z,6.75
2023-01-17T16:15:37.537Z,6.28
2023-01-17T16:18:09.986Z,7.03
2023-01-17T16:20:44.822Z,6.38
2023-01-17T16:23:12.505Z,7.00
2023-01-17T16:25:39.569Z,6.82
2023-01-17T16:28:07.167Z,7.28
2023-01-17T16:30:34.647Z,7.63
2023-01-17T16:33:03.720Z,8.85
2023-01-17T16:35:33.597Z,7.38
2023-01-17T16:38:07.153Z,7.93
2023-01-17T16:40:41.570Z,8.02
2023-01-17T16:43:12.202Z,6.82
2023-01-17T16:45:44.141Z,9.40
2023-01-17T16:48:12.641Z,8.35
2023-01-17T16:50:48.404Z,5.95
2023-01-17T16:53:21.522Z,6.95
2023-01-17T16:55:56.281Z,6.53
2023-01-17T16:58:24.016Z,6.40
2023-01-17T17:00:51.881Z,7.82
2023-01-17T17:03:21.336Z,6.18
2023-01-17T17:06:00.122Z,5.78
2023-01-17T17:08:29.857Z,6.93
2023-01-17T17:11:18.983Z,5.50
2023-01-17T17:13:49.054Z,7.40
2023-01-17T17:16:33.036Z,6.32
2023-01-17T17:19:03.787Z,6.45
2023-01-17T17:21:35.315Z,7.78
2023-01-17T17:24:03.850Z,8.68
2023-01-17T17:26:35.792Z,7.35
2023-01-17T17:29:05.533Z,7.47
2023-01-17T17:31:33.503Z,5.07
2023-01-17T17:34:05.145Z,8.35
2023-01-17T17:36:32.712Z,6.90
2023-01-17T17:39:02.308Z,7.15
2023-01-17T17:41:34.601Z,13.18
2023-01-17T17:44:05.241Z,8.07
2023-01-17T17:46:33.942Z,8.75
2023-01-17T17:49:02.230Z,8.70
2023-01-17T17:51:32.633Z,8.20
2023-01-17T17:54:05.449Z,12.63
2023-01-17T17:56:33.534Z,11.65
2023-01-17T17:59:02.430Z,11.05
2023-01-17T18:01:32.955Z,12.38
2023-01-17T18:04:04.612Z,6.78
2023-01-17T18:06:36.020Z,9.55
2023-01-17T18:09:05.819Z,8.75
2023-01-17T18:11:34.371Z,8.07
2023-01-17T18:14:03.727Z,7.43
2023-01-17T18:16:41.890Z,8.77
2023-01-17T18:19:16.172Z,8.50
2023-01-17T18:21:46.772Z,8.95
2023-01-17T18:24:20.080Z,8.32
2023-01-17T18:26:52.950Z,7.68
2023-01-17T18:29:22.732Z,7.95
2023-01-17T18:31:54.106Z,8.07
2023-01-17T18:34:24.455Z,9.55
2023-01-17T18:36:52.606Z,11.27
2023-01-17T18:39:24.859Z,12.18
2023-01-17T18:41:55.351Z,9.65
2023-01-17T18:44:23.781Z,9.43
2023-01-17T18:46:53.566Z,10.20
2023-01-17T18:49:23.271Z,7.15
2023-01-17T18:51:51.660Z,7.72
2023-01-17T18:54:23.836Z,7.38
2023-01-17T18:56:55.018Z,8.25
2023-01-17T18:59:23.628Z,6.38
2023-01-17T19:01:53.658Z,7.53
2023-01-17T19:04:22.168Z,10.60
2023-01-17T19:06:56.936Z,6.50
2023-01-17T19:09:25.163Z,7.47
2023-01-17T19:11:53.049Z,7.25
2023-01-17T19:14:21.269Z,7.72
2023-01-17T19:16:49.056Z,8.65
2023-01-17T19:19:22.493Z,5.50
2023-01-17T19:21:54.316Z,8.48
2023-01-17T19:24:22.765Z,7.65
2023-01-17T19:26:56.157Z,7.95
2023-01-17T19:29:24.470Z,6.10
2023-01-17T19:31:52.333Z,8.02
2023-01-17T19:34:21.847Z,8.20
2023-01-17T19:36:55.098Z,6.70
2023-01-17T19:39:26.001Z,6.68
2023-01-17T19:41:53.923Z,5.65
2023-01-17T19:44:22.190Z,9.38
2023-01-17T19:46:50.086Z,6.97
2023-01-17T19:49:24.535Z,7.63
2023-01-17T19:51:52.964Z,6.32
2023-01-17T19:54:21.047Z,8.68
2023-01-17T19:56:50.351Z,7.10
2023-01-17T19:59:21.052Z,6.57
2023-01-17T20:01:49.871Z,8.05
2023-01-17T20:04:25.513Z,6.60
2023-01-17T20:06:54.114Z,6.93
2023-01-17T20:09:24.949Z,9.73
2023-01-17T20:11:54.151Z,7.13
2023-01-17T20:14:22.949Z,6.72
2023-01-17T20:16:52.813Z,7.78
2023-01-17T20:19:21.353Z,8.93
2023-01-17T20:21:49.299Z,6.57
2023-01-17T20:24:17.346Z,7.63
2023-01-17T20:26:44.976Z,9.35
2023-01-17T20:29:15.425Z,7.43
2023-01-17T20:31:45.855Z,5.60
2023-01-17T20:34:19.811Z,7.47
2023-01-17T20:36:49.087Z,8.05
2023-01-17T20:39:16.796Z,10.30
2023-01-17T20:41:49.401Z,8.63
2023-01-17T20:44:19.689Z,10.35
2023-01-17T20:46:48.452Z,10.75
2023-01-17T20:49:19.093Z,13.25
2023-01-17T20:51:49.086Z,12.98
2023-01-17T20:54:18.751Z,13.15
2023-01-17T20:56:49.510Z,12.07
2023-01-17T20:59:20.813Z,15.50
2023-01-17T21:01:49.670Z,11.32
2023-01-17T21:04:20.157Z,12.13
2023-01-17T21:07:01.490Z,11.38
2023-01-17T21:09:32.430Z,10.65
2023-01-17T21:12:01.447Z,10.73
2023-01-17T21:14:47.045Z,14.02
2023-01-17T21:17:16.449Z,10.95
2023-01-17T21:19:45.012Z,10.98
2023-01-17T21:22:37.597Z,10.05
2023-01-17T21:25:05.954Z,13.50
2023-01-17T21:27:33.276Z,13.18
2023-01-17T21:30:00.976Z,11.70
2023-01-17T21:32:33.119Z,13.82
2023-01-17T21:35:03.461Z,16.63
2023-01-17T21:37:30.432Z,16.05
2023-01-17T21:39:57.776Z,14.40
2023-01-17T21:42:24.794Z,13.25
2023-01-17T21:44:52.211Z,14.68
2023-01-17T21:47:22.190Z,15.85
2023-01-17T21:49:51.899Z,16.80
2023-01-17T21:52:19.258Z,14.93
2023-01-17T21:55:07.204Z,13.80
2023-01-17T21:57:52.615Z,10.52
2023-01-17T22:00:20.021Z,7.93
2023-01-17T22:02:48.269Z,9.98
2023-01-17T22:05:19.737Z,10.43
2023-01-17T22:08:05.835Z,9.38
2023-01-17T22:10:33.311Z,8.63
2023-01-17T22:13:00.332Z,8.90
2023-01-17T22:15:27.671Z,11.48
2023-01-17T22:17:57.785Z,9.35
2023-01-17T22:20:25.630Z,10.18
2023-01-17T22:22:52.652Z,9.80
2023-01-17T22:25:26.311Z,10.23
2023-01-17T22:27:58.043Z,9.15
2023-01-17T22:30:25.594Z,12.02
2023-01-17T22:32:52.649Z,11.43
2023-01-17T22:35:20.039Z,10.50
2023-01-17T22:37:57.705Z,11.98
2023-01-17T22:40:32.998Z,10.45
2023-01-17T22:43:00.258Z,11.13
2023-01-17T22:45:29.086Z,15.48
2023-01-17T22:47:56.330Z,16.60
2023-01-17T22:50:23.959Z,13.10
2023-01-17T22:52:51.073Z,11.90
2023-01-17T22:55:18.428Z,11.82
2023-01-17T22:57:48.935Z,10.52
2023-01-17T23:00:16.684Z,11.80
2023-01-17T23:02:43.909Z,11.27
2023-01-17T23:05:11.498Z,14.05
2023-01-17T23:07:44.539Z,10.90
2023-01-17T23:10:33.953Z,12.38
2023-01-17T23:13:00.894Z,10.02
2023-01-17T23:15:46.891Z,7.47
2023-01-17T23:18:32.676Z,7.53
2023-01-17T23:20:59.941Z,6.22
2023-01-17T23:23:27.272Z,6.07
2023-01-17T23:25:59.726Z,7.53
2023-01-17T23:28:26.790Z,5.72
2023-01-17T23:30:54.041Z,6.10
2023-01-17T23:33:21.267Z,5.75
2023-01-17T23:35:51.033Z,6.95
2023-01-17T23:38:33.968Z,5.28
2023-01-17T23:41:25.129Z,6.05
2023-01-17T23:43:58.996Z,5.57
2023-01-17T23:46:27.186Z,6.05
2023-01-17T23:48:56.620Z,5.05
2023-01-17T23:51:23.897Z,5.75
2023-01-17T23:53:55.271Z,5.97
2023-01-17T23:56:24.877Z,8.40
2023-01-17T23:58:54.085Z,5.28
